sensor_id;sensor_type;location;lat;lon;timestamp;pressure;altitude;pressure_sealevel;temperature;humidity
63881;BME280;50046;46.672;11.152;2022-09-11T00:00:06;98176.06;;;15.65;78.65
63881;BME280;50046;46.672;11.152;2022-09-11T00:00:16;98172.81;;;15.63;78.70
63881;BME280;50046;46.672;11.152;2022-09-11T00:00:27;98169.78;;;15.64;78.92
63881;BME280;50046;46.672;11.152;2022-09-11T00:00:37;98172.50;;;15.64;79.04
63881;BME280;50046;46.672;11.152;2022-09-11T00:00:48;98172.22;;;15.66;79.12
63881;BME280;50046;46.672;11.152;2022-09-11T00:00:59;98170.09;;;15.63;78.95
63881;BME280;50046;46.672;11.152;2022-09-11T00:01:10;98164.13;;;15.61;79.24
63881;BME280;50046;46.672;11.152;2022-09-11T00:01:23;98169.56;;;15.61;79.39
63881;BME280;50046;46.672;11.152;2022-09-11T00:01:34;98166.56;;;15.62;79.26
63881;BME280;50046;46.672;11.152;2022-09-11T00:01:45;98165.75;;;15.62;79.27
63881;BME280;50046;46.672;11.152;2022-09-11T00:01:56;98161.94;;;15.63;79.65
63881;BME280;50046;46.672;11.152;2022-09-11T00:02:06;98164.34;;;15.64;79.37
63881;BME280;50046;46.672;11.152;2022-09-11T00:02:19;98162.47;;;15.65;79.21
63881;BME280;50046;46.672;11.152;2022-09-11T00:02:30;98170.03;;;15.68;79.01
63881;BME280;50046;46.672;11.152;2022-09-11T00:02:41;98167.31;;;15.68;79.18
63881;BME280;50046;46.672;11.152;2022-09-11T00:02:51;98167.31;;;15.68;78.87
63881;BME280;50046;46.672;11.152;2022-09-11T00:03:02;98163.22;;;15.71;78.77
63881;BME280;50046;46.672;11.152;2022-09-11T00:03:12;98169.75;;;15.70;79.07
63881;BME280;50046;46.672;11.152;2022-09-11T00:03:22;98168.94;;;15.69;78.56
63881;BME280;50046;46.672;11.152;2022-09-11T00:03:35;98170.84;;;15.69;78.54
63881;BME280;50046;46.672;11.152;2022-09-11T00:03:45;98164.06;;;15.66;78.74
63881;BME280;50046;46.672;11.152;2022-09-11T00:03:56;98169.78;;;15.64;79.00
63881;BME280;50046;46.672;11.152;2022-09-11T00:04:08;98171.44;;;15.65;79.09
63881;BME280;50046;46.672;11.152;2022-09-11T00:04:18;98173.03;;;15.66;79.11
63881;BME280;50046;46.672;11.152;2022-09-11T00:04:29;98167.91;;;15.65;78.97
63881;BME280;50046;46.672;11.152;2022-09-11T00:04:40;98167.06;;;15.64;79.40
63881;BME280;50046;46.672;11.152;2022-09-11T00:04:50;98169.78;;;15.64;79.00
63881;BME280;50046;46.672;11.152;2022-09-11T00:05:01;98165.97;;;15.65;79.32
63881;BME280;50046;46.672;11.152;2022-09-11T00:05:11;98165.97;;;15.65;79.46
63881;BME280;50046;46.672;11.152;2022-09-11T00:05:22;98170.63;;;15.65;79.51
63881;BME280;50046;46.672;11.152;2022-09-11T00:05:36;98172.50;;;15.64;79.40
63881;BME280;50046;46.672;11.152;2022-09-11T00:05:48;98176.88;;;15.65;79.44
63881;BME280;50046;46.672;11.152;2022-09-11T00:06:09;98165.97;;;15.65;79.17
63881;BME280;50046;46.672;11.152;2022-09-11T00:06:20;98173.09;;;15.61;78.98
63881;BME280;50046;46.672;11.152;2022-09-11T00:06:30;98174.50;;;15.59;79.00
63881;BME280;50046;46.672;11.152;2022-09-11T00:06:41;98165.00;;;15.56;79.12
63881;BME280;50046;46.672;11.152;2022-09-11T00:06:52;98166.66;;;15.57;78.96
63881;BME280;50046;46.672;11.152;2022-09-11T00:07:03;98172.38;;;15.56;78.86
63881;BME280;50046;46.672;11.152;2022-09-11T00:07:13;98173.47;;;15.55;78.86
63881;BME280;50046;46.672;11.152;2022-09-11T00:07:23;98168.59;;;15.52;78.76
63881;BME280;50046;46.672;11.152;2022-09-11T00:07:35;98173.22;;;15.51;79.45
63881;BME280;50046;46.672;11.152;2022-09-11T00:07:45;98167.25;;;15.49;79.51
63881;BME280;50046;46.672;11.152;2022-09-11T00:07:57;98172.44;;;15.51;79.80
63881;BME280;50046;46.672;11.152;2022-09-11T00:08:09;98174.63;;;15.49;79.67
63881;BME280;50046;46.672;11.152;2022-09-11T00:08:20;98177.06;;;15.50;79.83
63881;BME280;50046;46.672;11.152;2022-09-11T00:08:31;98170.50;;;15.51;79.64
63881;BME280;50046;46.672;11.152;2022-09-11T00:08:42;98171.31;;;15.52;79.84
63881;BME280;50046;46.672;11.152;2022-09-11T00:08:55;98167.50;;;15.53;79.79
63881;BME280;50046;46.672;11.152;2022-09-11T00:09:09;98173.22;;;15.51;79.69
63881;BME280;50046;46.672;11.152;2022-09-11T00:09:20;98182.19;;;15.52;79.86
63881;BME280;50046;46.672;11.152;2022-09-11T00:09:30;98170.81;;;15.50;79.76
63881;BME280;50046;46.672;11.152;2022-09-11T00:09:41;98171.38;;;15.47;79.67
63881;BME280;50046;46.672;11.152;2022-09-11T00:09:51;98169.19;;;15.49;79.90
63881;BME280;50046;46.672;11.152;2022-09-11T00:10:01;98170.28;;;15.48;80.01
63881;BME280;50046;46.672;11.152;2022-09-11T00:10:12;98173.53;;;15.50;80.28
63881;BME280;50046;46.672;11.152;2022-09-11T00:10:22;98172.72;;;15.49;79.97
63881;BME280;50046;46.672;11.152;2022-09-11T00:10:39;98174.16;;;15.41;79.86
63881;BME280;50046;46.672;11.152;2022-09-11T00:10:49;98170.06;;;15.44;80.00
63881;BME280;50046;46.672;11.152;2022-09-11T00:11:08;98171.75;;;15.40;80.23
63881;BME280;50046;46.672;11.152;2022-09-11T00:11:20;98173.66;;;15.39;80.03
63881;BME280;50046;46.672;11.152;2022-09-11T00:11:35;98170.88;;;15.44;79.98
63881;BME280;50046;46.672;11.152;2022-09-11T00:11:46;98173.09;;;15.42;79.77
63881;BME280;50046;46.672;11.152;2022-09-11T00:11:57;98165.50;;;15.39;79.82
63881;BME280;50046;46.672;11.152;2022-09-11T00:12:07;98171.50;;;15.36;80.23
63881;BME280;50046;46.672;11.152;2022-09-11T00:12:19;98169.63;;;15.37;80.33
63881;BME280;50046;46.672;11.152;2022-09-11T00:12:31;98173.16;;;15.37;80.64
63881;BME280;50046;46.672;11.152;2022-09-11T00:12:41;98166.38;;;15.35;80.50
63881;BME280;50046;46.672;11.152;2022-09-11T00:12:52;98168.28;;;15.34;80.27
63881;BME280;50046;46.672;11.152;2022-09-11T00:13:03;98173.94;;;15.38;80.47
63881;BME280;50046;46.672;11.152;2022-09-11T00:13:19;98171.50;;;15.36;80.07
63881;BME280;50046;46.672;11.152;2022-09-11T00:13:30;98172.34;;;15.37;80.27
63881;BME280;50046;46.672;11.152;2022-09-11T00:13:41;98167.19;;;15.35;80.06
63881;BME280;50046;46.672;11.152;2022-09-11T00:13:51;98164.47;;;15.35;80.44
63881;BME280;50046;46.672;11.152;2022-09-11T00:14:03;98163.34;;;15.36;80.35
63881;BME280;50046;46.672;11.152;2022-09-11T00:14:13;98162.25;;;15.37;80.52
63881;BME280;50046;46.672;11.152;2022-09-11T00:14:24;98161.16;;;15.38;80.63
63881;BME280;50046;46.672;11.152;2022-09-11T00:14:38;98166.00;;;15.41;80.40
63881;BME280;50046;46.672;11.152;2022-09-11T00:14:49;98161.41;;;15.42;80.74
63881;BME280;50046;46.672;11.152;2022-09-11T00:15:00;98159.47;;;15.42;80.20
63881;BME280;50046;46.672;11.152;2022-09-11T00:15:11;98163.00;;;15.43;80.24
63881;BME280;50046;46.672;11.152;2022-09-11T00:15:21;98161.09;;;15.43;80.15
63881;BME280;50046;46.672;11.152;2022-09-11T00:15:39;98162.72;;;15.44;80.13
63881;BME280;50046;46.672;11.152;2022-09-11T00:15:50;98161.88;;;15.44;80.11
63881;BME280;50046;46.672;11.152;2022-09-11T00:16:05;98165.19;;;15.41;80.39
63881;BME280;50046;46.672;11.152;2022-09-11T00:16:19;98155.13;;;15.41;80.45
63881;BME280;50046;46.672;11.152;2022-09-11T00:16:33;98161.09;;;15.43;80.33
63881;BME280;50046;46.672;11.152;2022-09-11T00:16:45;98162.19;;;15.42;80.68
63881;BME280;50046;46.672;11.152;2022-09-11T00:16:56;98158.16;;;15.40;80.51
63881;BME280;50046;46.672;11.152;2022-09-11T00:17:06;98166.00;;;15.41;80.47
63881;BME280;50046;46.672;11.152;2022-09-11T00:17:16;98167.41;;;15.39;80.63
63881;BME280;50046;46.672;11.152;2022-09-11T00:17:27;98161.16;;;15.38;80.59
63881;BME280;50046;46.672;11.152;2022-09-11T00:17:37;98163.59;;;15.40;80.77
63881;BME280;50046;46.672;11.152;2022-09-11T00:17:48;98166.25;;;15.45;80.33
63881;BME280;50046;46.672;11.152;2022-09-11T00:17:58;98165.44;;;15.44;80.24
63881;BME280;50046;46.672;11.152;2022-09-11T00:18:13;98161.88;;;15.44;80.28
63881;BME280;50046;46.672;11.152;2022-09-11T00:18:24;98162.72;;;15.44;80.04
63881;BME280;50046;46.672;11.152;2022-09-11T00:18:35;98167.06;;;15.46;80.26
63881;BME280;50046;46.672;11.152;2022-09-11T00:18:46;98165.13;;;15.46;80.17
63881;BME280;50046;46.672;11.152;2022-09-11T00:19:00;98158.88;;;15.46;80.01
63881;BME280;50046;46.672;11.152;2022-09-11T00:19:17;98160.22;;;15.48;79.90
63881;BME280;50046;46.672;11.152;2022-09-11T00:19:27;98161.34;;;15.47;80.02
63881;BME280;50046;46.672;11.152;2022-09-11T00:19:38;98169.50;;;15.47;80.05
63881;BME280;50046;46.672;11.152;2022-09-11T00:19:51;98164.06;;;15.47;79.54
63881;BME280;50046;46.672;11.152;2022-09-11T00:20:03;98168.91;;;15.50;79.37
63881;BME280;50046;46.672;11.152;2022-09-11T00:20:13;98164.06;;;15.47;79.37
63881;BME280;50046;46.672;11.152;2022-09-11T00:20:24;98166.25;;;15.45;79.48
63881;BME280;50046;46.672;11.152;2022-09-11T00:20:34;98168.16;;;15.44;79.49
63881;BME280;50046;46.672;11.152;2022-09-11T00:20:49;98166.00;;;15.41;79.18
63881;BME280;50046;46.672;11.152;2022-09-11T00:21:01;98167.13;;;15.40;79.61
63881;BME280;50046;46.672;11.152;2022-09-11T00:21:32;98160.56;;;15.41;79.10
63881;BME280;50046;46.672;11.152;2022-09-11T00:21:47;98172.34;;;15.37;79.35
63881;BME280;50046;46.672;11.152;2022-09-11T00:22:15;98167.75;;;15.32;79.14
63881;BME280;50046;46.672;11.152;2022-09-11T00:22:26;98169.38;;;15.33;79.52
63881;BME280;50046;46.672;11.152;2022-09-11T00:22:37;98171.00;;;15.34;79.22
63881;BME280;50046;46.672;11.152;2022-09-11T00:22:47;98175.94;;;15.32;79.18
63881;BME280;50046;46.672;11.152;2022-09-11T00:23:01;98170.19;;;15.34;78.99
63881;BME280;50046;46.672;11.152;2022-09-11T00:23:13;98173.22;;;15.32;78.96
63881;BME280;50046;46.672;11.152;2022-09-11T00:23:27;98175.94;;;15.32;79.15
63881;BME280;50046;46.672;11.152;2022-09-11T00:23:37;98171.81;;;15.35;79.13
63881;BME280;50046;46.672;11.152;2022-09-11T00:23:48;98180.56;;;15.32;79.07
63881;BME280;50046;46.672;11.152;2022-09-11T00:23:59;98173.78;;;15.29;78.84
63881;BME280;50046;46.672;11.152;2022-09-11T00:24:09;98167.81;;;15.27;79.13
63881;BME280;50046;46.672;11.152;2022-09-11T00:24:20;98165.91;;;15.28;79.03
63881;BME280;50046;46.672;11.152;2022-09-11T00:24:30;98173.50;;;15.31;78.96
63881;BME280;50046;46.672;11.152;2022-09-11T00:24:41;98177.84;;;15.32;79.47
63881;BME280;50046;46.672;11.152;2022-09-11T00:24:51;98176.44;;;15.34;79.13
63881;BME280;50046;46.672;11.152;2022-09-11T00:25:02;98175.88;;;15.37;79.40
63881;BME280;50046;46.672;11.152;2022-09-11T00:25:12;98172.56;;;15.40;79.04
63881;BME280;50046;46.672;11.152;2022-09-11T00:25:22;98176.88;;;15.41;78.71
63881;BME280;50046;46.672;11.152;2022-09-11T00:25:34;98179.59;;;15.41;78.94
63881;BME280;50046;46.672;11.152;2022-09-11T00:25:45;98179.06;;;15.44;78.85
63881;BME280;50046;46.672;11.152;2022-09-11T00:26:00;98172.28;;;15.42;78.65
63881;BME280;50046;46.672;11.152;2022-09-11T00:26:11;98162.19;;;15.42;78.63
63881;BME280;50046;46.672;11.152;2022-09-11T00:26:22;98174.16;;;15.41;78.76
63881;BME280;50046;46.672;11.152;2022-09-11T00:26:34;98178.81;;;15.41;78.70
63881;BME280;50046;46.672;11.152;2022-09-11T00:26:44;98169.84;;;15.40;78.61
63881;BME280;50046;46.672;11.152;2022-09-11T00:26:56;98172.84;;;15.39;78.75
63881;BME280;50046;46.672;11.152;2022-09-11T00:27:07;98173.09;;;15.42;78.77
63881;BME280;50046;46.672;11.152;2022-09-11T00:27:17;98174.41;;;15.45;78.77
63881;BME280;50046;46.672;11.152;2022-09-11T00:27:27;98170.88;;;15.44;78.35
63881;BME280;50046;46.672;11.152;2022-09-11T00:27:38;98173.59;;;15.44;78.23
63881;BME280;50046;46.672;11.152;2022-09-11T00:27:49;98178.81;;;15.41;78.20
63881;BME280;50046;46.672;11.152;2022-09-11T00:28:01;98178.28;;;15.39;78.24
63881;BME280;50046;46.672;11.152;2022-09-11T00:28:14;98178.59;;;15.37;78.26
63881;BME280;50046;46.672;11.152;2022-09-11T00:28:25;98171.81;;;15.35;78.46
63881;BME280;50046;46.672;11.152;2022-09-11T00:28:35;98172.63;;;15.35;78.37
63881;BME280;50046;46.672;11.152;2022-09-11T00:28:48;98175.94;;;15.32;78.45
63881;BME280;50046;46.672;11.152;2022-09-11T00:28:59;98173.44;;;15.36;78.58
63881;BME280;50046;46.672;11.152;2022-09-11T00:29:10;98178.28;;;15.39;78.18
63881;BME280;50046;46.672;11.152;2022-09-11T00:29:21;98178.59;;;15.37;78.49
63881;BME280;50046;46.672;11.152;2022-09-11T00:29:32;98177.78;;;15.37;78.11
63881;BME280;50046;46.672;11.152;2022-09-11T00:29:42;98185.94;;;15.37;78.18
63881;BME280;50046;46.672;11.152;2022-09-11T00:29:53;98176.44;;;15.34;78.52
63881;BME280;50046;46.672;11.152;2022-09-11T00:30:03;98174.53;;;15.35;78.60
63881;BME280;50046;46.672;11.152;2022-09-11T00:30:14;98175.63;;;15.34;78.43
63881;BME280;50046;46.672;11.152;2022-09-11T00:30:27;98179.44;;;15.33;78.58
63881;BME280;50046;46.672;11.152;2022-09-11T00:30:38;98184.69;;;15.29;78.03
63881;BME280;50046;46.672;11.152;2022-09-11T00:31:03;98178.78;;;15.22;77.68
63881;BME280;50046;46.672;11.152;2022-09-11T00:31:20;98182.06;;;15.19;78.05
63881;BME280;50046;46.672;11.152;2022-09-11T00:31:31;98178.25;;;15.20;78.47
63881;BME280;50046;46.672;11.152;2022-09-11T00:31:41;98178.78;;;15.22;78.04
63881;BME280;50046;46.672;11.152;2022-09-11T00:31:52;98178.78;;;15.22;78.07
63881;BME280;50046;46.672;11.152;2022-09-11T00:32:03;98182.28;;;15.22;78.04
63881;BME280;50046;46.672;11.152;2022-09-11T00:32:16;98177.66;;;15.23;78.04
63881;BME280;50046;46.672;11.152;2022-09-11T00:32:26;98182.56;;;15.21;78.12
63881;BME280;50046;46.672;11.152;2022-09-11T00:32:36;98182.06;;;15.19;78.19
63881;BME280;50046;46.672;11.152;2022-09-11T00:32:47;98179.03;;;15.20;78.28
63881;BME280;50046;46.672;11.152;2022-09-11T00:32:59;98185.06;;;15.17;78.27
63881;BME280;50046;46.672;11.152;2022-09-11T00:33:11;98181.75;;;15.20;78.24
63881;BME280;50046;46.672;11.152;2022-09-11T00:33:21;98178.19;;;15.25;77.97
63881;BME280;50046;46.672;11.152;2022-09-11T00:33:33;98180.09;;;15.25;77.90
63881;BME280;50046;46.672;11.152;2022-09-11T00:33:44;98175.75;;;15.23;78.30
63881;BME280;50046;46.672;11.152;2022-09-11T00:33:55;98185.28;;;15.21;77.93
63881;BME280;50046;46.672;11.152;2022-09-11T00:34:05;98182.28;;;15.22;77.95
63881;BME280;50046;46.672;11.152;2022-09-11T00:34:16;98182.56;;;15.21;78.02
63881;BME280;50046;46.672;11.152;2022-09-11T00:34:26;98176.31;;;15.20;78.33
63881;BME280;50046;46.672;11.152;2022-09-11T00:34:37;98177.97;;;15.21;78.38
63881;BME280;50046;46.672;11.152;2022-09-11T00:34:48;98180.38;;;15.23;78.28
63881;BME280;50046;46.672;11.152;2022-09-11T00:34:59;98184.44;;;15.26;77.95
63881;BME280;50046;46.672;11.152;2022-09-11T00:35:09;98180.63;;;15.27;77.94
63881;BME280;50046;46.672;11.152;2022-09-11T00:35:20;98176.56;;;15.24;78.24
63881;BME280;50046;46.672;11.152;2022-09-11T00:35:31;98186.06;;;15.27;78.27
63881;BME280;50046;46.672;11.152;2022-09-11T00:35:42;98183.84;;;15.29;78.13
63881;BME280;50046;46.672;11.152;2022-09-11T00:35:56;98183.84;;;15.29;78.43
63881;BME280;50046;46.672;11.152;2022-09-11T00:36:12;98191.72;;;15.30;78.13
63881;BME280;50046;46.672;11.152;2022-09-11T00:36:25;98185.16;;;15.31;77.93
63881;BME280;50046;46.672;11.152;2022-09-11T00:36:37;98179.22;;;15.29;78.12
63881;BME280;50046;46.672;11.152;2022-09-11T00:36:55;98186.28;;;15.30;77.90
63881;BME280;50046;46.672;11.152;2022-09-11T00:37:07;98185.16;;;15.31;78.32
63881;BME280;50046;46.672;11.152;2022-09-11T00:37:18;98183.56;;;15.30;78.28
63881;BME280;50046;46.672;11.152;2022-09-11T00:37:28;98187.69;;;15.28;78.48
63881;BME280;50046;46.672;11.152;2022-09-11T00:37:39;98181.44;;;15.27;78.71
63881;BME280;50046;46.672;11.152;2022-09-11T00:37:49;98183.84;;;15.29;78.51
63881;BME280;50046;46.672;11.152;2022-09-11T00:38:00;98183.03;;;15.28;78.61
63881;BME280;50046;46.672;11.152;2022-09-11T00:38:10;98184.94;;;15.28;78.84
63881;BME280;50046;46.672;11.152;2022-09-11T00:38:22;98177.06;;;15.26;78.53
63881;BME280;50046;46.672;11.152;2022-09-11T00:38:35;98184.16;;;15.27;78.79
63881;BME280;50046;46.672;11.152;2022-09-11T00:38:49;98186.88;;;15.27;78.82
63881;BME280;50046;46.672;11.152;2022-09-11T00:38:59;98183.34;;;15.27;79.05
63881;BME280;50046;46.672;11.152;2022-09-11T00:39:11;98188.47;;;15.28;79.08
63881;BME280;50046;46.672;11.152;2022-09-11T00:39:21;98185.47;;;15.30;78.88
63881;BME280;50046;46.672;11.152;2022-09-11T00:39:32;98181.44;;;15.27;79.08
63881;BME280;50046;46.672;11.152;2022-09-11T00:39:42;98183.50;;;15.35;78.70
63881;BME280;50046;46.672;11.152;2022-09-11T00:39:52;98184.03;;;15.37;78.68
63881;BME280;50046;46.672;11.152;2022-09-11T00:40:04;98180.03;;;15.30;78.11
63881;BME280;50046;46.672;11.152;2022-09-11T00:40:16;98181.19;;;15.23;77.85
63881;BME280;50046;46.672;11.152;2022-09-11T00:40:26;98180.97;;;15.20;78.14
63881;BME280;50046;46.672;11.152;2022-09-11T00:40:44;98184.84;;;15.14;78.39
63881;BME280;50046;46.672;11.152;2022-09-11T00:40:57;98186.50;;;15.10;78.37
63881;BME280;50046;46.672;11.152;2022-09-11T00:41:19;98182.94;;;15.14;78.62
63881;BME280;50046;46.672;11.152;2022-09-11T00:41:34;98174.78;;;15.14;78.58
63881;BME280;50046;46.672;11.152;2022-09-11T00:41:45;98184.53;;;15.15;78.47
63881;BME280;50046;46.672;11.152;2022-09-11T00:41:55;98180.75;;;15.16;78.33
63881;BME280;50046;46.672;11.152;2022-09-11T00:42:08;98176.09;;;15.17;78.32
63881;BME280;50046;46.672;11.152;2022-09-11T00:42:21;98184.53;;;15.15;78.62
63881;BME280;50046;46.672;11.152;2022-09-11T00:42:32;98176.16;;;15.12;78.63
63881;BME280;50046;46.672;11.152;2022-09-11T00:42:42;98177.78;;;15.13;78.91
63881;BME280;50046;46.672;11.152;2022-09-11T00:42:53;98177.78;;;15.13;78.92
63881;BME280;50046;46.672;11.152;2022-09-11T00:43:08;98178.56;;;15.13;78.92
63881;BME280;50046;46.672;11.152;2022-09-11T00:43:19;98180.50;;;15.13;78.94
63881;BME280;50046;46.672;11.152;2022-09-11T00:45:01;98182.69;;;15.11;79.43
63881;BME280;50046;46.672;11.152;2022-09-11T00:45:30;98178.41;;;15.05;79.25
63881;BME280;50046;46.672;11.152;2022-09-11T00:45:42;98182.25;;;15.04;79.31
63881;BME280;50046;46.672;11.152;2022-09-11T00:46:02;98179.00;;;15.02;79.50
63881;BME280;50046;46.672;11.152;2022-09-11T00:46:14;98182.53;;;15.02;79.63
63881;BME280;50046;46.672;11.152;2022-09-11T00:46:53;98183.09;;;14.99;79.58
63881;BME280;50046;46.672;11.152;2022-09-11T00:47:05;98183.09;;;14.99;79.47
63881;BME280;50046;46.672;11.152;2022-09-11T00:47:18;98179.56;;;14.98;79.79
63881;BME280;50046;46.672;11.152;2022-09-11T00:47:29;98186.63;;;14.99;79.34
63881;BME280;50046;46.672;11.152;2022-09-11T00:47:40;98185.56;;;14.95;79.28
63881;BME280;50046;46.672;11.152;2022-09-11T00:47:55;98178.75;;;14.98;79.32
63881;BME280;50046;46.672;11.152;2022-09-11T00:48:08;98186.41;;;14.96;79.76
63881;BME280;50046;46.672;11.152;2022-09-11T00:48:22;98177.94;;;14.97;79.99
63881;BME280;50046;46.672;11.152;2022-09-11T00:48:35;98182.78;;;15.00;79.56
63881;BME280;50046;46.672;11.152;2022-09-11T00:48:46;98183.31;;;15.03;79.75
63881;BME280;50046;46.672;11.152;2022-09-11T00:49:02;98180.03;;;15.06;79.50
63881;BME280;50046;46.672;11.152;2022-09-11T00:49:41;98178.47;;;14.99;79.87
63881;BME280;50046;46.672;11.152;2022-09-11T00:49:55;98178.47;;;14.99;79.91
63881;BME280;50046;46.672;11.152;2022-09-11T00:50:13;98181.19;;;14.99;79.96
63881;BME280;50046;46.672;11.152;2022-09-11T00:50:27;98175.47;;;15.01;80.26
63881;BME280;50046;46.672;11.152;2022-09-11T00:50:41;98174.94;;;14.99;80.17
63881;BME280;50046;46.672;11.152;2022-09-11T00:50:53;98179.00;;;15.02;80.63
63881;BME280;50046;46.672;11.152;2022-09-11T00:51:05;98181.72;;;15.02;80.37
63881;BME280;50046;46.672;11.152;2022-09-11T00:51:25;98177.88;;;15.03;80.42
63881;BME280;50046;46.672;11.152;2022-09-11T00:51:37;98174.88;;;15.04;80.49
63881;BME280;50046;46.672;11.152;2022-09-11T00:51:53;98175.97;;;15.03;80.32
63881;BME280;50046;46.672;11.152;2022-09-11T00:52:25;98180.31;;;15.04;80.41
63881;BME280;50046;46.672;11.152;2022-09-11T00:52:40;98179.22;;;15.05;80.41
63881;BME280;50046;46.672;11.152;2022-09-11T00:53:04;98172.97;;;15.05;80.49
63881;BME280;50046;46.672;11.152;2022-09-11T00:53:22;98179.78;;;15.02;80.43
63881;BME280;50046;46.672;11.152;2022-09-11T00:53:36;98175.75;;;14.99;80.68
63881;BME280;50046;46.672;11.152;2022-09-11T00:53:48;98177.59;;;15.04;80.34
63881;BME280;50046;46.672;11.152;2022-09-11T00:54:01;98180.59;;;15.03;80.50
63881;BME280;50046;46.672;11.152;2022-09-11T00:54:15;98175.47;;;15.01;80.49
63881;BME280;50046;46.672;11.152;2022-09-11T00:54:30;98176.28;;;15.02;80.41
63881;BME280;50046;46.672;11.152;2022-09-11T00:54:54;98173.25;;;15.03;80.70
63881;BME280;50046;46.672;11.152;2022-09-11T00:55:09;98172.75;;;15.01;80.82
63881;BME280;50046;46.672;11.152;2022-09-11T00:55:22;98177.34;;;15.00;80.99
63881;BME280;50046;46.672;11.152;2022-09-11T00:55:42;98172.50;;;14.97;81.25
63881;BME280;50046;46.672;11.152;2022-09-11T00:55:57;98171.91;;;15.00;81.31
63881;BME280;50046;46.672;11.152;2022-09-11T00:56:09;98174.63;;;15.00;81.09
63881;BME280;50046;46.672;11.152;2022-09-11T00:56:21;98169.50;;;14.99;80.98
63881;BME280;50046;46.672;11.152;2022-09-11T00:56:34;98171.97;;;14.95;81.28
63881;BME280;50046;46.672;11.152;2022-09-11T00:56:47;98173.34;;;14.93;81.14
63881;BME280;50046;46.672;11.152;2022-09-11T00:56:59;98170.09;;;14.96;81.18
63881;BME280;50046;46.672;11.152;2022-09-11T00:57:12;98176.03;;;14.98;81.34
63881;BME280;50046;46.672;11.152;2022-09-11T00:57:26;98164.94;;;14.94;81.46
63881;BME280;50046;46.672;11.152;2022-09-11T00:57:41;98167.63;;;14.94;81.31
63881;BME280;50046;46.672;11.152;2022-09-11T00:58:02;98167.69;;;14.89;81.44
63881;BME280;50046;46.672;11.152;2022-09-11T00:58:20;98165.50;;;14.91;81.77
63881;BME280;50046;46.672;11.152;2022-09-11T00:58:35;98165.56;;;14.86;81.71
63881;BME280;50046;46.672;11.152;2022-09-11T00:58:47;98178.34;;;14.86;82.13
63881;BME280;50046;46.672;11.152;2022-09-11T00:59:00;98174.78;;;14.85;81.99
63881;BME280;50046;46.672;11.152;2022-09-11T00:59:11;98174.53;;;14.87;82.23
63881;BME280;50046;46.672;11.152;2022-09-11T00:59:23;98162.31;;;14.84;82.56
63881;BME280;50046;46.672;11.152;2022-09-11T00:59:38;98167.16;;;14.87;82.58
63881;BME280;50046;46.672;11.152;2022-09-11T00:59:52;98170.19;;;14.86;82.15
63881;BME280;50046;46.672;11.152;2022-09-11T01:00:05;98164.44;;;14.87;82.63
63881;BME280;50046;46.672;11.152;2022-09-11T01:00:16;98166.09;;;14.88;82.50
63881;BME280;50046;46.672;11.152;2022-09-11T01:00:27;98163.88;;;14.90;82.42
63881;BME280;50046;46.672;11.152;2022-09-11T01:00:38;98163.88;;;14.90;82.17
63881;BME280;50046;46.672;11.152;2022-09-11T01:00:53;98163.88;;;14.90;82.20
63881;BME280;50046;46.672;11.152;2022-09-11T01:01:05;98164.19;;;14.89;82.27
63881;BME280;50046;46.672;11.152;2022-09-11T01:01:15;98165.25;;;14.88;82.24
63881;BME280;50046;46.672;11.152;2022-09-11T01:01:25;98166.38;;;14.87;82.67
63881;BME280;50046;46.672;11.152;2022-09-11T01:01:36;98163.38;;;14.88;82.54
63881;BME280;50046;46.672;11.152;2022-09-11T01:01:46;98158.72;;;14.89;82.59
63881;BME280;50046;46.672;11.152;2022-09-11T01:01:57;98164.19;;;14.89;82.60
63881;BME280;50046;46.672;11.152;2022-09-11T01:02:09;98164.19;;;14.89;82.72
63881;BME280;50046;46.672;11.152;2022-09-11T01:02:23;98161.16;;;14.90;82.70
63881;BME280;50046;46.672;11.152;2022-09-11T01:02:38;98160.66;;;14.88;82.60
63881;BME280;50046;46.672;11.152;2022-09-11T01:02:50;98164.19;;;14.89;82.84
63881;BME280;50046;46.672;11.152;2022-09-11T01:03:02;98153.88;;;14.86;82.73
63881;BME280;50046;46.672;11.152;2022-09-11T01:03:13;98169.34;;;14.85;82.64
63881;BME280;50046;46.672;11.152;2022-09-11T01:03:24;98159.31;;;14.86;82.79
63881;BME280;50046;46.672;11.152;2022-09-11T01:03:35;98154.69;;;14.86;82.97
63881;BME280;50046;46.672;11.152;2022-09-11T01:03:46;98163.13;;;14.85;82.73
63881;BME280;50046;46.672;11.152;2022-09-11T01:03:56;98156.88;;;14.84;82.89
63881;BME280;50046;46.672;11.152;2022-09-11T01:04:07;98158.78;;;14.84;82.75
63881;BME280;50046;46.672;11.152;2022-09-11T01:04:19;98166.13;;;14.83;82.89
63881;BME280;50046;46.672;11.152;2022-09-11T01:04:30;98155.81;;;14.80;82.70
63881;BME280;50046;46.672;11.152;2022-09-11T01:04:44;98158.84;;;14.78;82.96
63881;BME280;50046;46.672;11.152;2022-09-11T01:04:56;98159.66;;;14.79;83.08
63881;BME280;50046;46.672;11.152;2022-09-11T01:05:07;98168.31;;;14.81;83.20
63881;BME280;50046;46.672;11.152;2022-09-11T01:05:19;98162.63;;;14.77;82.93
63881;BME280;50046;46.672;11.152;2022-09-11T01:05:35;98163.75;;;14.76;83.06
63881;BME280;50046;46.672;11.152;2022-09-11T01:05:48;98160.44;;;14.79;83.07
63881;BME280;50046;46.672;11.152;2022-09-11T01:05:59;98167.00;;;14.78;83.02
63881;BME280;50046;46.672;11.152;2022-09-11T01:06:11;98162.09;;;14.81;82.96
63881;BME280;50046;46.672;11.152;2022-09-11T01:06:23;98162.09;;;14.81;82.80
63881;BME280;50046;46.672;11.152;2022-09-11T01:06:34;98167.22;;;14.82;82.94
63881;BME280;50046;46.672;11.152;2022-09-11T01:06:44;98170.25;;;14.81;82.72
63881;BME280;50046;46.672;11.152;2022-09-11T01:06:57;98167.53;;;14.81;82.91
63881;BME280;50046;46.672;11.152;2022-09-11T01:07:08;98158.25;;;14.82;82.67